GAO weather

South Lafourche Leonard Miller Jr Airport
Galliano, Louisiana, United States

Public forecast

Using degrees Fahrenheit for public forecast. Weather courtesy of forecast.io.

METAR (pilot weather report)

Retrieved 2019/07/19 07:35 UTC (5 minutes ago):

KGAO 190735Z AUTO 00000KT 7SM CLR 23/20 A3002 RMK AO2 T02270197

TAF (pilot weather forecast)

Closest forecast is Houma Terrebonne Airport, 22.1 nm (40.9 km) WNW. Retrieved 2019/07/19 06:22 UTC (1 hour ago):

TAF KHUM 190520Z 1906/2006 00000KT P6SM FEW250 FM191800 VRB04KT P6SM SCT025 BKN130 FM192200 17007KT P6SM FEW025 SCT200 FM200300 00000KT P6SM SCT250